Time;durP1;ratioP1;P1;durP2;ratioP2;P2;SDS_P1;SDS_P2;PMS_P1;PMS_P2;Temp;Humidity;BMP_temperature;BMP_pressure;BME280_temperature;BME280_humidity;BME280_pressure;Samples;Min_cycle;Max_cycle;Signal;HPM_P1;HPM_P2
2023/10/02 01:49:42;;;;;;;10.60;10.30;;;12.10;99.90;;;;;;2129466;23;20501;-82
2023/10/02 01:52:11;;;;;;;10.77;10.47;;;12.10;99.90;;;;;;4966857;28;20337;-83
2023/10/02 01:54:40;;;;;;;10.80;10.50;;;12.00;99.90;;;;;;4970771;28;20231;-83
2023/10/02 01:57:07;;;;;;;10.80;10.50;;;12.00;99.90;;;;;;4969554;28;20226;-83
2023/10/02 01:59:36;;;;;;;11.00;10.63;;;12.00;99.90;;;;;;4969438;28;20238;-83
2023/10/02 02:02:12;;;;;;;11.10;10.70;;;12.00;99.90;;;;;;4969630;28;20234;-83
2023/10/02 02:04:43;;;;;;;10.70;10.40;;;11.90;99.90;;;;;;4969573;28;20241;-83
2023/10/02 02:07:10;;;;;;;11.00;10.60;;;11.90;99.90;;;;;;4970132;28;20215;-84
2023/10/02 02:09:41;;;;;;;10.60;10.30;;;11.90;99.90;;;;;;4969798;28;20330;-83
2023/10/02 02:12:10;;;;;;;10.80;10.50;;;11.90;99.90;;;;;;4968899;28;20238;-83
2023/10/02 02:14:41;;;;;;;10.73;10.43;;;11.90;99.90;;;;;;4969356;28;20289;-83
2023/10/02 02:17:10;;;;;;;10.97;10.60;;;11.80;99.90;;;;;;4970016;28;20229;-82
2023/10/02 02:19:37;;;;;;;11.00;10.60;;;11.80;99.90;;;;;;4969691;28;20301;-83
2023/10/02 02:22:06;;;;;;;10.90;10.50;;;11.80;99.90;;;;;;4970604;28;20234;-82
2023/10/02 02:24:34;;;;;;;10.70;10.40;;;11.70;99.90;;;;;;4973392;28;20242;-83
2023/10/02 02:27:04;;;;;;;11.00;10.60;;;11.70;99.90;;;;;;4973670;28;20226;-83
2023/10/02 02:29:33;;;;;;;11.00;10.60;;;11.60;99.90;;;;;;4970784;28;20244;-83
2023/10/02 02:32:00;;;;;;;10.80;10.50;;;11.50;99.90;;;;;;4969418;28;20248;-83
2023/10/02 02:34:27;;;;;;;11.00;10.60;;;11.50;99.90;;;;;;4969801;28;20243;-83
2023/10/02 02:36:57;;;;;;;11.00;10.60;;;11.40;99.90;;;;;;4968832;28;20257;-82
2023/10/02 02:39:25;;;;;;;11.00;10.60;;;11.40;99.90;;;;;;4969188;28;20253;-83
2023/10/02 02:44:50;;;;;;;10.70;10.40;;;11.30;99.90;;;;;;5163346;27;1286410;-84
2023/10/02 02:47:20;;;;;;;10.90;10.50;;;11.30;99.90;;;;;;5185149;27;20230;-84
2023/10/02 02:49:52;;;;;;;10.77;10.47;;;11.20;99.90;;;;;;5175287;27;20231;-84
2023/10/02 02:52:24;;;;;;;10.80;10.50;;;11.10;99.90;;;;;;5164597;27;20228;-84
2023/10/02 02:54:58;;;;;;;10.80;10.50;;;11.00;99.90;;;;;;5167760;27;20284;-84
2023/10/02 02:57:27;;;;;;;11.00;10.60;;;11.00;99.90;;;;;;5168437;27;20257;-84
2023/10/02 03:00:24;;;;;;;10.73;10.43;;;11.00;99.90;;;;;;5165481;27;20392;-84
2023/10/02 03:02:47;;;;;;;10.80;10.50;;;11.00;99.90;;;;;;5163951;27;20259;-84
2023/10/02 03:05:16;;;;;;;10.73;10.43;;;11.00;99.90;;;;;;5166934;27;20263;-83
2023/10/02 03:07:44;;;;;;;10.97;10.57;;;11.00;99.90;;;;;;5165944;27;20231;-84
2023/10/02 03:10:13;;;;;;;10.63;10.33;;;11.00;99.90;;;;;;5164382;27;20247;-84
2023/10/02 03:12:44;;;;;;;10.57;10.27;;;11.00;99.90;;;;;;5164591;27;20207;-84
2023/10/02 03:15:17;;;;;;;10.70;10.40;;;11.00;99.90;;;;;;5163933;27;20289;-82
2023/10/02 03:17:45;;;;;;;10.70;10.40;;;11.00;99.90;;;;;;5164037;27;20231;-82
2023/10/02 03:20:23;;;;;;;10.80;10.50;;;10.90;99.90;;;;;;5165436;27;20219;-83
2023/10/02 03:22:55;;;;;;;10.60;10.30;;;10.90;99.90;;;;;;5164673;27;20368;-82
2023/10/02 03:25:26;;;;;;;10.50;10.20;;;10.80;99.90;;;;;;5163840;27;20258;-82
2023/10/02 03:27:55;;;;;;;10.50;10.20;;;10.80;99.90;;;;;;5164040;27;20236;-83
2023/10/02 03:30:38;;;;;;;10.50;10.20;;;10.90;99.90;;;;;;5164167;27;20326;-83
2023/10/02 03:33:17;;;;;;;10.77;10.47;;;10.90;99.90;;;;;;5163538;27;20220;-82
2023/10/02 03:35:56;;;;;;;10.43;10.13;;;10.90;99.90;;;;;;5163556;27;20751;-82
2023/10/02 03:38:29;;;;;;;10.50;10.20;;;10.90;99.90;;;;;;5163642;27;20234;-82
2023/10/02 03:40:58;;;;;;;10.60;10.30;;;10.90;99.90;;;;;;5164412;27;20227;-83
2023/10/02 03:43:43;;;;;;;10.30;10.00;;;10.90;99.90;;;;;;5162989;27;20227;-82
2023/10/02 03:46:22;;;;;;;10.40;10.10;;;10.90;99.90;;;;;;5163747;27;20312;-83
2023/10/02 03:48:58;;;;;;;10.50;10.20;;;10.90;99.90;;;;;;5166893;27;20227;-83
2023/10/02 03:51:36;;;;;;;10.47;10.17;;;10.90;99.90;;;;;;5170516;27;20215;-83
2023/10/02 03:54:18;;;;;;;10.40;10.10;;;10.80;99.90;;;;;;5163786;27;20235;-83
2023/10/02 03:56:47;;;;;;;10.50;10.20;;;10.80;99.90;;;;;;5147999;27;20242;-83
2023/10/02 03:59:17;;;;;;;10.53;10.23;;;10.70;99.90;;;;;;5147866;27;20253;-83
2023/10/02 04:01:47;;;;;;;10.80;10.47;;;10.60;99.90;;;;;;5160923;27;20265;-83
2023/10/02 04:04:21;;;;;;;10.33;10.03;;;10.60;99.90;;;;;;5151085;27;20235;-83
2023/10/02 04:06:53;;;;;;;10.40;10.10;;;10.60;99.90;;;;;;5149296;27;20313;-83
2023/10/02 04:09:23;;;;;;;10.50;10.20;;;10.60;99.90;;;;;;5149528;27;20296;-83
2023/10/02 04:11:52;;;;;;;10.33;10.03;;;10.60;99.90;;;;;;5156667;27;20231;-84
2023/10/02 04:14:31;;;;;;;10.40;10.10;;;10.50;99.90;;;;;;5148545;27;20224;-84
2023/10/02 04:17:09;;;;;;;10.30;10.00;;;10.60;99.90;;;;;;5147980;27;20258;-83
2023/10/02 04:19:36;;;;;;;10.20;9.90;;;10.60;99.90;;;;;;5148442;27;20231;-83
2023/10/02 04:22:06;;;;;;;10.40;10.10;;;10.60;99.90;;;;;;5149064;27;20273;-84
2023/10/02 04:24:50;;;;;;;10.40;10.10;;;10.60;99.90;;;;;;5149791;27;20239;-83
2023/10/02 04:27:18;;;;;;;10.50;10.20;;;10.60;99.90;;;;;;5148475;27;20238;-83
2023/10/02 04:30:09;;;;;;;10.30;10.00;;;10.50;99.90;;;;;;5147703;27;20263;-83
2023/10/02 04:32:35;;;;;;;10.30;10.00;;;10.50;99.90;;;;;;5148782;27;20270;-83
2023/10/02 04:35:03;;;;;;;10.50;10.20;;;10.50;99.90;;;;;;5151394;27;20208;-83
2023/10/02 04:37:33;;;;;;;10.20;9.90;;;10.50;99.90;;;;;;5149624;27;20315;-83
2023/10/02 04:40:16;;;;;;;10.20;9.90;;;10.50;99.90;;;;;;5152451;27;20231;-83
2023/10/02 04:45:36;;;;;;;10.20;9.90;;;10.40;99.90;;;;;;5133848;27;20208;-84
2023/10/02 04:48:09;;;;;;;10.23;9.93;;;10.40;99.90;;;;;;5150099;27;20231;-83
2023/10/02 04:50:45;;;;;;;10.33;10.03;;;10.30;99.90;;;;;;5151282;27;20254;-83
2023/10/02 04:53:22;;;;;;;10.20;9.90;;;10.30;99.90;;;;;;5150948;27;20235;-84
2023/10/02 04:56:07;;;;;;;10.30;10.00;;;10.30;99.90;;;;;;5150855;27;20224;-84
2023/10/02 04:58:39;;;;;;;10.37;10.07;;;10.30;99.90;;;;;;5150522;27;20285;-84
2023/10/02 05:01:28;;;;;;;10.33;10.03;;;10.30;99.90;;;;;;5152420;27;20232;-83
2023/10/02 05:04:01;;;;;;;10.50;10.20;;;10.40;99.90;;;;;;5150273;27;20232;-84
2023/10/02 05:06:44;;;;;;;10.30;10.00;;;10.40;99.90;;;;;;5148081;27;20319;-84
2023/10/02 05:09:25;;;;;;;10.23;9.93;;;10.40;99.90;;;;;;5148687;27;20239;-84
2023/10/02 05:11:55;;;;;;;10.30;10.00;;;10.40;99.90;;;;;;5148929;27;20228;-85
2023/10/02 05:14:29;;;;;;;10.30;10.00;;;10.40;99.90;;;;;;5149510;27;20247;-84
2023/10/02 05:17:16;;;;;;;10.23;9.93;;;10.40;99.90;;;;;;5148984;27;20212;-84
2023/10/02 05:19:57;;;;;;;10.27;9.97;;;10.30;99.90;;;;;;5149614;27;20236;-85
2023/10/02 05:22:25;;;;;;;10.40;10.10;;;10.30;99.90;;;;;;5149440;27;20220;-84
2023/10/02 05:24:58;;;;;;;10.30;10.00;;;10.20;99.90;;;;;;5149737;27;20536;-84
2023/10/02 05:27:31;;;;;;;10.40;10.10;;;10.20;99.90;;;;;;5149941;27;20228;-83
2023/10/02 05:30:05;;;;;;;10.57;10.27;;;10.20;99.90;;;;;;5149526;27;20240;-84
2023/10/02 05:32:35;;;;;;;10.40;10.10;;;10.10;99.90;;;;;;5149212;27;20236;-84
2023/10/02 05:35:16;;;;;;;10.63;10.33;;;10.10;99.90;;;;;;5149227;27;20224;-83
2023/10/02 05:37:45;;;;;;;10.27;9.97;;;10.10;99.90;;;;;;5148549;27;20239;-84
2023/10/02 05:43:17;;;;;;;10.63;10.33;;;10.10;99.90;;;;;;5148851;27;20216;-84
2023/10/02 05:45:53;;;;;;;10.27;9.97;;;10.10;99.90;;;;;;5148193;27;20220;-84
2023/10/02 05:48:37;;;;;;;10.30;10.00;;;10.20;99.90;;;;;;5149247;27;20224;-84
2023/10/02 05:51:12;;;;;;;10.20;9.90;;;10.30;99.90;;;;;;5150858;27;20248;-84
2023/10/02 05:53:53;;;;;;;9.93;9.63;;;10.30;99.90;;;;;;5148888;27;20234;-85
2023/10/02 05:56:20;;;;;;;10.20;9.90;;;10.40;99.90;;;;;;5150089;27;20280;-84
2023/10/02 05:58:49;;;;;;;10.17;9.87;;;10.50;99.90;;;;;;5150606;27;20227;-84
2023/10/02 06:01:23;;;;;;;10.20;9.90;;;10.50;99.90;;;;;;5150999;27;20243;-84
2023/10/02 06:03:56;;;;;;;10.07;9.77;;;10.60;99.90;;;;;;5148371;27;20313;-84
2023/10/02 06:06:27;;;;;;;9.97;9.67;;;10.70;99.90;;;;;;5148327;27;20228;-84
2023/10/02 06:09:01;;;;;;;10.10;9.80;;;10.80;99.90;;;;;;5147991;27;20288;-84
2023/10/02 06:11:31;;;;;;;9.97;9.67;;;10.90;99.90;;;;;;5149168;27;20228;-85
2023/10/02 06:14:10;;;;;;;10.10;9.80;;;10.90;99.90;;;;;;5148536;27;20236;-84
2023/10/02 06:16:39;;;;;;;10.30;10.00;;;11.00;99.90;;;;;;5147720;27;20242;-84
2023/10/02 06:19:13;;;;;;;9.97;9.67;;;11.00;99.90;;;;;;5148250;27;20239;-84
2023/10/02 06:22:04;;;;;;;9.90;9.60;;;11.10;99.90;;;;;;5148729;27;20232;-84
2023/10/02 06:24:32;;;;;;;9.93;9.63;;;11.20;99.90;;;;;;5148567;27;20232;-84
2023/10/02 06:27:04;;;;;;;10.10;9.80;;;11.30;99.90;;;;;;5151150;27;20216;-84
2023/10/02 06:29:33;;;;;;;10.20;9.90;;;11.30;99.90;;;;;;5150360;27;20231;-83
2023/10/02 06:32:05;;;;;;;10.30;10.00;;;11.40;99.90;;;;;;5148862;27;20235;-84
2023/10/02 06:34:37;;;;;;;10.13;9.83;;;11.50;99.90;;;;;;5148261;27;20224;-84
2023/10/02 06:37:12;;;;;;;10.00;9.70;;;11.60;99.90;;;;;;5148562;27;20234;-83
2023/10/02 06:39:42;;;;;;;9.90;9.60;;;11.70;99.90;;;;;;5148197;27;20307;-84
2023/10/02 06:42:12;;;;;;;10.00;9.70;;;11.80;99.90;;;;;;5147556;27;20255;-84
2023/10/02 06:44:42;;;;;;;10.10;9.80;;;11.90;99.90;;;;;;5147648;27;20338;-84
2023/10/02 06:47:13;;;;;;;10.07;9.77;;;12.00;99.90;;;;;;5147156;27;20231;-84
2023/10/02 06:49:43;;;;;;;10.10;9.80;;;12.10;99.90;;;;;;5148429;27;20239;-84
2023/10/02 06:52:16;;;;;;;10.07;9.77;;;12.20;99.90;;;;;;5149221;27;20235;-84
2023/10/02 06:54:46;;;;;;;10.20;9.90;;;12.40;99.90;;;;;;5149593;27;20232;-84
2023/10/02 06:57:16;;;;;;;10.17;9.87;;;12.50;99.90;;;;;;5147404;27;20236;-84
2023/10/02 06:59:52;;;;;;;10.13;9.83;;;12.70;99.90;;;;;;5147353;27;20236;-84
2023/10/02 07:02:21;;;;;;;10.37;10.07;;;12.80;99.90;;;;;;5148573;27;20296;-84
2023/10/02 07:04:49;;;;;;;10.60;10.30;;;13.00;99.90;;;;;;5148484;27;20255;-84
2023/10/02 07:07:24;;;;;;;10.30;10.00;;;13.10;99.90;;;;;;5147913;27;20224;-84
2023/10/02 07:09:54;;;;;;;10.40;10.10;;;13.10;99.90;;;;;;5147181;27;20238;-84
2023/10/02 07:12:22;;;;;;;10.33;10.03;;;13.30;99.90;;;;;;5146313;27;20232;-84
2023/10/02 07:15:10;;;;;;;10.50;10.20;;;13.40;99.90;;;;;;5148069;27;20252;-84
2023/10/02 07:17:47;;;;;;;10.50;10.20;;;13.50;99.90;;;;;;5145948;27;20314;-84
2023/10/02 07:20:15;;;;;;;10.53;10.23;;;13.60;99.90;;;;;;5146643;27;20231;-84
2023/10/02 07:22:44;;;;;;;10.57;10.27;;;13.80;99.90;;;;;;5147247;27;20238;-84
2023/10/02 07:25:11;;;;;;;10.80;10.50;;;13.80;99.90;;;;;;5147096;27;20263;-84
2023/10/02 07:27:40;;;;;;;10.80;10.50;;;14.00;99.90;;;;;;5149491;27;20264;-84
2023/10/02 07:30:09;;;;;;;10.70;10.40;;;14.10;99.90;;;;;;5149175;27;20220;-84
2023/10/02 07:32:36;;;;;;;10.80;10.50;;;14.20;99.90;;;;;;5150203;27;20277;-84
2023/10/02 07:35:21;;;;;;;10.80;10.50;;;14.20;99.90;;;;;;5150232;27;20243;-84
2023/10/02 07:37:58;;;;;;;10.90;10.60;;;14.30;99.90;;;;;;5150147;27;20232;-84
2023/10/02 07:40:27;;;;;;;10.90;10.60;;;14.40;99.90;;;;;;5149772;27;20227;-84
2023/10/02 07:42:55;;;;;;;10.80;10.50;;;14.50;99.90;;;;;;5150878;27;20239;-83
2023/10/02 07:45:25;;;;;;;10.70;10.40;;;14.70;99.90;;;;;;5150437;27;20232;-84
2023/10/02 13:50:37;;;;;;;11.00;10.70;;;34.80;99.90;;;;;;5072370;22;20242;-84
2023/10/02 13:53:05;;;;;;;11.00;10.70;;;35.00;99.90;;;;;;5065246;28;20219;-84
2023/10/02 13:55:35;;;;;;;10.63;10.32;;;35.30;99.90;;;;;;5067391;28;20257;-83
2023/10/02 13:58:06;;;;;;;11.07;10.77;;;35.10;99.90;;;;;;5067472;28;20227;-84
2023/10/02 14:00:39;;;;;;;11.05;10.75;;;34.70;99.90;;;;;;5067839;28;20239;-83
2023/10/02 14:03:12;;;;;;;11.00;10.70;;;34.50;99.90;;;;;;5066989;28;20293;-84
2023/10/02 14:05:41;;;;;;;10.90;10.60;;;34.40;99.90;;;;;;5066594;28;20226;-83
2023/10/02 14:08:09;;;;;;;11.10;10.80;;;34.50;99.90;;;;;;5066974;28;20237;-84
2023/10/02 14:10:41;;;;;;;11.20;10.90;;;34.50;99.90;;;;;;5066426;28;20237;-84
2023/10/02 14:13:09;;;;;;;11.20;10.90;;;34.20;99.90;;;;;;5067200;28;20230;-84
2023/10/02 14:15:37;;;;;;;11.10;10.80;;;34.10;99.90;;;;;;5067862;28;20330;-83
2023/10/02 14:18:04;;;;;;;11.10;10.80;;;34.00;99.90;;;;;;5066897;28;20226;-83
2023/10/02 14:20:32;;;;;;;10.65;10.35;;;33.90;99.90;;;;;;5067150;28;20261;-83
2023/10/02 14:23:01;;;;;;;11.00;10.70;;;33.70;99.90;;;;;;5066815;28;20548;-83
2023/10/02 14:25:30;;;;;;;11.07;10.77;;;33.50;99.90;;;;;;5067442;28;20226;-83
2023/10/02 14:27:58;;;;;;;10.52;10.23;;;33.40;99.90;;;;;;5068339;28;20241;-83
2023/10/02 14:30:25;;;;;;;10.60;10.30;;;33.50;99.90;;;;;;5066161;28;20298;-83
2023/10/02 14:32:53;;;;;;;10.65;10.35;;;33.70;99.90;;;;;;5066935;28;20245;-83
2023/10/02 14:35:21;;;;;;;10.60;10.30;;;34.10;99.90;;;;;;5067099;28;20231;-83
2023/10/02 14:37:49;;;;;;;10.80;10.50;;;34.00;99.90;;;;;;5066838;28;20253;-83
2023/10/02 14:40:26;;;;;;;10.60;10.30;;;33.70;99.90;;;;;;5067322;28;20230;-84
2023/10/02 14:42:53;;;;;;;10.57;10.27;;;33.50;99.90;;;;;;5067655;28;20324;-84
2023/10/02 14:45:20;;;;;;;10.45;10.15;;;33.60;99.90;;;;;;5068782;28;20223;-83
2023/10/02 14:47:48;;;;;;;10.55;10.25;;;33.60;99.90;;;;;;5068372;28;20294;-84
2023/10/02 14:50:16;;;;;;;10.70;10.40;;;33.40;99.90;;;;;;5067715;28;20238;-83
2023/10/02 14:52:43;;;;;;;10.52;10.23;;;33.10;99.90;;;;;;5068935;28;20229;-84
2023/10/02 14:55:17;;;;;;;10.50;10.20;;;32.80;99.90;;;;;;5068788;28;20219;-83
2023/10/02 14:57:47;;;;;;;10.38;10.07;;;32.50;99.90;;;;;;5067424;28;20255;-84
2023/10/02 15:00:15;;;;;;;10.57;10.27;;;32.30;99.90;;;;;;5067474;28;20231;-83
2023/10/02 15:02:43;;;;;;;10.48;10.18;;;32.50;99.90;;;;;;5068169;28;20295;-84
2023/10/02 15:05:15;;;;;;;10.50;10.20;;;32.20;99.90;;;;;;5067740;28;20226;-83
2023/10/02 15:07:44;;;;;;;10.57;10.27;;;32.20;99.90;;;;;;5067560;28;20234;-83
2023/10/02 15:10:12;;;;;;;10.50;10.20;;;32.20;99.90;;;;;;5068356;28;20239;-84
2023/10/02 15:12:39;;;;;;;10.52;10.23;;;32.30;99.90;;;;;;5067795;28;20234;-83
2023/10/02 15:15:13;;;;;;;10.60;10.30;;;32.40;99.90;;;;;;5068304;28;20254;-84
2023/10/02 15:17:45;;;;;;;10.60;10.30;;;32.30;99.90;;;;;;5069159;28;20238;-83
2023/10/02 15:20:14;;;;;;;10.50;10.20;;;32.10;99.90;;;;;;5067862;28;20281;-83
2023/10/02 15:22:42;;;;;;;10.48;10.18;;;32.10;99.90;;;;;;5066111;28;20258;-84
2023/10/02 15:25:13;;;;;;;10.60;10.30;;;32.00;99.90;;;;;;5066114;28;20236;-84
2023/10/02 15:27:42;;;;;;;10.52;10.23;;;31.90;99.90;;;;;;5065884;28;20231;-83
2023/10/02 15:30:15;;;;;;;10.48;10.18;;;31.90;99.90;;;;;;5066169;28;20234;-83
2023/10/02 15:32:44;;;;;;;10.30;10.00;;;31.80;99.90;;;;;;5066605;28;20226;-83
2023/10/02 15:35:12;;;;;;;10.27;9.98;;;31.60;99.90;;;;;;5066898;28;20211;-84
2023/10/02 15:37:39;;;;;;;10.13;9.82;;;31.50;99.90;;;;;;5066869;28;20227;-83
2023/10/02 15:40:08;;;;;;;10.00;9.70;;;31.50;99.90;;;;;;5066440;28;20254;-83
2023/10/02 15:42:36;;;;;;;10.23;9.93;;;31.50;99.90;;;;;;5066553;28;20234;-83
2023/10/02 15:45:13;;;;;;;10.07;9.77;;;31.50;99.90;;;;;;5066711;28;20219;-83
2023/10/02 15:47:44;;;;;;;10.30;10.00;;;31.60;99.90;;;;;;5066925;28;20284;-84
2023/10/02 15:50:14;;;;;;;10.23;9.93;;;31.60;99.90;;;;;;5066433;28;20246;-83
2023/10/02 15:52:41;;;;;;;10.27;9.98;;;31.30;99.90;;;;;;5070181;28;20239;-84
2023/10/02 15:55:10;;;;;;;10.20;9.90;;;31.20;99.90;;;;;;5069641;28;20242;-84
2023/10/02 15:57:40;;;;;;;10.20;9.90;;;31.00;99.90;;;;;;5069745;28;20227;-83
2023/10/02 16:00:10;;;;;;;10.18;9.88;;;30.90;99.90;;;;;;5069251;28;20241;-82
2023/10/02 16:02:38;;;;;;;10.30;10.00;;;30.60;99.90;;;;;;5068053;28;20764;-83
2023/10/02 16:05:08;;;;;;;10.35;10.05;;;30.30;99.90;;;;;;5068474;28;20258;-83
2023/10/02 16:07:38;;;;;;;10.50;10.20;;;29.90;99.90;;;;;;5068957;28;20269;-83
2023/10/02 16:10:08;;;;;;;10.70;10.40;;;29.40;99.90;;;;;;5067752;28;20245;-83
2023/10/02 16:12:38;;;;;;;10.60;10.30;;;29.10;99.90;;;;;;5068695;28;20239;-82
2023/10/02 16:15:11;;;;;;;10.60;10.30;;;28.70;99.90;;;;;;5068844;28;20282;-85
2023/10/02 16:17:39;;;;;;;10.57;10.27;;;28.40;99.90;;;;;;5069092;28;20304;-82
2023/10/02 16:20:13;;;;;;;10.52;10.23;;;28.10;99.90;;;;;;5068719;28;20235;-83
2023/10/02 16:22:40;;;;;;;10.55;10.25;;;27.90;99.90;;;;;;5067735;28;20318;-83
2023/10/02 16:25:12;;;;;;;10.60;10.30;;;27.70;99.90;;;;;;5068858;28;20287;-82
2023/10/02 16:27:40;;;;;;;10.60;10.30;;;27.50;99.90;;;;;;5068609;28;20231;-83
2023/10/02 16:30:11;;;;;;;10.50;10.20;;;27.50;99.90;;;;;;5067560;28;20238;-82
2023/10/02 16:32:39;;;;;;;10.50;10.20;;;27.30;99.90;;;;;;5068591;28;20243;-83
2023/10/02 16:35:09;;;;;;;10.40;10.10;;;27.30;99.90;;;;;;5068593;28;20223;-82
2023/10/02 16:37:37;;;;;;;10.50;10.20;;;27.20;99.90;;;;;;5069598;28;20230;-82
2023/10/02 16:40:07;;;;;;;10.40;10.10;;;27.10;99.90;;;;;;5070125;28;20241;-82
2023/10/02 16:42:36;;;;;;;10.40;10.10;;;26.90;99.90;;;;;;5071941;28;20238;-83
2023/10/02 16:45:04;;;;;;;10.20;9.90;;;26.80;99.90;;;;;;5072914;28;20293;-82
2023/10/02 16:47:31;;;;;;;10.25;9.95;;;26.60;99.90;;;;;;5070220;28;20262;-82
2023/10/02 16:49:59;;;;;;;10.40;10.10;;;26.50;99.90;;;;;;5070128;28;20301;-82
2023/10/02 16:52:27;;;;;;;10.30;10.00;;;26.30;99.90;;;;;;5069330;28;20262;-82
2023/10/02 16:54:54;;;;;;;10.45;10.15;;;26.20;99.90;;;;;;5068773;28;20285;-83
2023/10/02 16:57:21;;;;;;;10.38;10.07;;;26.00;99.90;;;;;;5068216;28;20250;-83
2023/10/02 16:59:49;;;;;;;10.50;10.20;;;25.80;99.90;;;;;;5068225;28;20269;-83
2023/10/02 17:02:16;;;;;;;10.40;10.10;;;25.60;99.90;;;;;;5067675;28;20317;-83
2023/10/02 17:04:44;;;;;;;10.40;10.10;;;25.40;99.90;;;;;;5069900;28;20245;-83
2023/10/02 17:07:11;;;;;;;10.10;9.80;;;25.30;99.90;;;;;;5071833;28;20231;-83
2023/10/02 17:09:39;;;;;;;10.40;10.10;;;25.20;99.90;;;;;;5071291;28;20254;-83
2023/10/02 17:12:07;;;;;;;10.30;10.00;;;25.00;99.90;;;;;;5069101;28;20229;-84
2023/10/02 17:14:36;;;;;;;10.30;10.00;;;24.90;99.90;;;;;;5069485;28;20219;-82
2023/10/02 17:17:03;;;;;;;10.20;9.90;;;24.80;99.90;;;;;;5069060;28;20243;-84
2023/10/02 17:19:30;;;;;;;10.10;9.80;;;24.60;99.90;;;;;;5068839;28;20238;-84
2023/10/02 17:21:58;;;;;;;10.00;9.70;;;24.50;99.90;;;;;;5069326;28;20265;-84
2023/10/02 17:24:25;;;;;;;10.10;9.80;;;24.40;99.90;;;;;;5068072;28;20250;-84
2023/10/02 17:26:53;;;;;;;10.20;9.90;;;24.30;99.90;;;;;;5068435;28;20261;-85
2023/10/02 17:29:20;;;;;;;10.27;9.98;;;24.20;99.90;;;;;;5069200;28;20235;-83
2023/10/02 17:31:49;;;;;;;10.30;10.00;;;24.10;99.90;;;;;;5070554;28;20258;-83
2023/10/02 17:34:16;;;;;;;10.07;9.77;;;24.00;99.90;;;;;;5072046;28;20242;-86
2023/10/02 17:36:44;;;;;;;10.07;9.77;;;23.90;99.90;;;;;;5071734;28;20293;-84
2023/10/02 17:39:11;;;;;;;10.20;9.90;;;23.80;99.90;;;;;;5070428;28;20227;-84
2023/10/02 17:41:38;;;;;;;9.75;9.45;;;23.70;99.90;;;;;;5070748;28;20231;-84
2023/10/02 17:44:07;;;;;;;10.00;9.70;;;23.60;99.90;;;;;;5068339;28;20237;-84
2023/10/02 17:46:35;;;;;;;10.10;9.80;;;23.40;99.90;;;;;;5068721;28;20230;-84
2023/10/02 17:49:02;;;;;;;9.90;9.60;;;23.30;99.90;;;;;;5069488;28;20231;-84
2023/10/02 17:51:30;;;;;;;10.20;9.90;;;23.20;99.90;;;;;;5068266;28;20227;-83
2023/10/02 17:53:58;;;;;;;10.20;9.90;;;23.10;99.90;;;;;;5067768;28;20235;-84
2023/10/02 17:56:26;;;;;;;10.00;9.70;;;23.00;99.90;;;;;;5068364;28;20246;-84
2023/10/02 17:58:53;;;;;;;10.02;9.73;;;22.90;99.90;;;;;;5068688;28;20230;-85
2023/10/02 18:01:22;;;;;;;10.50;10.20;;;22.90;99.90;;;;;;5069036;28;20234;-85
2023/10/02 18:03:49;;;;;;;10.20;9.90;;;22.80;99.90;;;;;;5068846;28;20269;-83
2023/10/02 18:06:19;;;;;;;10.45;10.15;;;22.70;99.90;;;;;;5070916;28;20231;-84
2023/10/02 18:08:46;;;;;;;10.60;10.30;;;22.50;99.90;;;;;;5068658;28;20239;-83
2023/10/02 18:11:14;;;;;;;10.60;10.30;;;22.50;99.90;;;;;;5068052;28;20227;-84
2023/10/02 18:13:41;;;;;;;10.30;10.00;;;22.40;99.90;;;;;;5067885;28;20290;-84
2023/10/02 18:16:08;;;;;;;10.60;10.30;;;22.30;99.90;;;;;;5069359;28;20234;-84
2023/10/02 18:18:37;;;;;;;10.50;10.20;;;22.20;99.90;;;;;;5068627;28;20249;-84
2023/10/02 18:21:06;;;;;;;10.50;10.20;;;22.00;99.90;;;;;;5069026;28;20308;-84
2023/10/02 18:23:35;;;;;;;10.57;10.27;;;21.80;99.90;;;;;;5067881;28;20234;-84
2023/10/02 18:26:04;;;;;;;10.70;10.40;;;21.70;99.90;;;;;;5067980;28;20262;-84
2023/10/02 18:28:31;;;;;;;10.63;10.32;;;21.50;99.90;;;;;;5068220;28;20298;-83
2023/10/02 18:30:58;;;;;;;10.57;10.27;;;21.30;99.90;;;;;;5068134;28;20235;-83
2023/10/02 18:33:25;;;;;;;10.70;10.40;;;21.20;99.90;;;;;;5066542;28;20238;-83
2023/10/02 18:35:54;;;;;;;11.02;10.73;;;21.10;99.90;;;;;;5067171;28;20265;-83
2023/10/02 18:38:22;;;;;;;10.90;10.60;;;21.00;99.90;;;;;;5067487;28;20288;-83
2023/10/02 18:40:50;;;;;;;10.70;10.40;;;20.90;99.90;;;;;;5066890;28;20257;-83
2023/10/02 18:43:17;;;;;;;11.05;10.75;;;20.90;99.90;;;;;;5066952;28;20231;-82
2023/10/02 18:45:45;;;;;;;11.18;10.88;;;20.80;99.90;;;;;;5067248;28;20289;-83
2023/10/02 18:48:12;;;;;;;11.30;10.90;;;20.70;99.90;;;;;;5068079;28;20256;-84
2023/10/02 18:50:39;;;;;;;11.07;10.77;;;20.60;99.90;;;;;;5067922;28;20234;-84
2023/10/02 18:53:08;;;;;;;11.02;10.73;;;20.40;99.90;;;;;;5070785;28;20215;-84
2023/10/02 18:55:35;;;;;;;10.90;10.60;;;20.30;99.90;;;;;;5069421;28;20238;-85
2023/10/02 18:58:04;;;;;;;10.73;10.43;;;20.10;99.90;;;;;;5067105;28;20242;-84
2023/10/02 19:00:31;;;;;;;10.77;10.48;;;20.00;99.90;;;;;;5067019;28;20261;-84
2023/10/02 19:03:00;;;;;;;10.63;10.32;;;20.00;99.90;;;;;;5067706;28;20227;-82
2023/10/02 19:05:28;;;;;;;10.57;10.27;;;19.90;99.90;;;;;;5067638;28;20234;-82
2023/10/02 19:07:56;;;;;;;10.60;10.30;;;19.90;99.90;;;;;;5067514;28;20288;-82
2023/10/02 19:10:24;;;;;;;10.75;10.45;;;19.80;99.90;;;;;;5067178;28;20261;-82
2023/10/02 19:12:52;;;;;;;10.55;10.25;;;19.80;99.90;;;;;;5066777;28;20222;-83
2023/10/02 19:15:19;;;;;;;10.68;10.38;;;19.70;99.90;;;;;;5068311;28;20293;-84
2023/10/02 19:17:46;;;;;;;10.55;10.25;;;19.70;99.90;;;;;;5068695;28;20322;-83
2023/10/02 19:20:15;;;;;;;10.70;10.40;;;19.70;99.90;;;;;;5068220;28;20226;-83
2023/10/02 19:22:44;;;;;;;10.70;10.40;;;19.70;99.90;;;;;;5068786;28;20285;-83
2023/10/02 19:25:13;;;;;;;10.60;10.30;;;19.60;99.90;;;;;;5068534;28;20259;-83
2023/10/02 19:27:42;;;;;;;10.50;10.20;;;19.50;99.90;;;;;;5073089;28;20226;-83
2023/10/02 19:30:11;;;;;;;10.80;10.50;;;19.50;99.90;;;;;;5073094;28;20241;-83
2023/10/02 19:32:39;;;;;;;10.63;10.32;;;19.50;99.90;;;;;;5076754;28;20246;-83
2023/10/02 19:35:07;;;;;;;10.57;10.27;;;19.40;99.90;;;;;;5078587;28;20214;-84
2023/10/02 19:37:34;;;;;;;10.70;10.40;;;19.30;99.90;;;;;;5075217;28;20258;-83
2023/10/02 19:40:01;;;;;;;10.80;10.50;;;19.30;99.90;;;;;;5072974;28;20231;-84
2023/10/02 19:42:28;;;;;;;10.80;10.50;;;19.30;99.90;;;;;;5072555;28;21119;-83
2023/10/02 19:44:57;;;;;;;10.80;10.50;;;19.20;99.90;;;;;;5071930;28;20293;-83
2023/10/02 19:47:24;;;;;;;10.93;10.63;;;19.10;99.90;;;;;;5072322;28;20274;-83
2023/10/02 19:49:51;;;;;;;10.90;10.60;;;19.10;99.90;;;;;;5070876;28;20297;-82
